createdAt,value
2019-05-14T00:00:43.009Z,0.00
2019-05-14T00:01:42.932Z,0.00
2019-05-14T00:02:42.919Z,0.00
2019-05-14T00:03:42.900Z,0.00
2019-05-14T00:04:42.886Z,0.00
2019-05-14T00:05:42.860Z,0.00
2019-05-14T00:06:42.872Z,0.00
2019-05-14T00:07:42.838Z,0.00
2019-05-14T00:08:42.817Z,0.00
2019-05-14T00:09:42.798Z,0.00
2019-05-14T00:10:42.786Z,0.00
2019-05-14T00:11:42.767Z,0.00
2019-05-14T00:12:42.753Z,0.00
2019-05-14T00:13:42.733Z,0.00
2019-05-14T00:14:43.792Z,0.00
2019-05-14T00:15:42.704Z,0.00
2019-05-14T00:16:42.682Z,0.00
2019-05-14T00:17:42.656Z,0.00
2019-05-14T00:18:42.648Z,0.00
2019-05-14T00:19:42.623Z,0.00
2019-05-14T00:20:42.608Z,0.00
2019-05-14T00:21:42.599Z,0.00
2019-05-14T00:22:42.575Z,0.00
2019-05-14T00:23:42.571Z,0.00
2019-05-14T00:24:42.776Z,0.00
2019-05-14T00:25:42.521Z,0.00
2019-05-14T00:26:42.837Z,0.00
2019-05-14T00:27:42.487Z,0.00
2019-05-14T00:28:42.490Z,0.00
2019-05-14T00:29:42.456Z,0.00
2019-05-14T00:30:42.441Z,0.00
2019-05-14T00:31:42.766Z,0.00
2019-05-14T00:32:42.404Z,0.00
2019-05-14T00:33:42.386Z,0.00
2019-05-14T00:34:42.649Z,0.00
2019-05-14T00:35:42.362Z,0.00
2019-05-14T00:36:42.360Z,0.00
2019-05-14T00:37:42.323Z,0.00
2019-05-14T00:38:42.301Z,0.00
2019-05-14T00:39:42.281Z,0.00
2019-05-14T00:40:42.289Z,0.00
2019-05-14T00:41:42.262Z,0.00
2019-05-14T00:42:42.226Z,0.00
2019-05-14T00:43:42.220Z,0.00
2019-05-14T00:44:53.607Z,0.00
2019-05-14T00:45:42.203Z,0.00
2019-05-14T00:46:42.166Z,0.00
2019-05-14T00:47:42.146Z,0.00
2019-05-14T00:48:42.344Z,0.00
2019-05-14T00:49:42.607Z,0.00
2019-05-14T00:50:42.227Z,0.00
2019-05-14T00:51:42.080Z,0.00
2019-05-14T00:52:45.838Z,0.00
2019-05-14T00:53:42.245Z,0.00
2019-05-14T00:54:42.078Z,0.00
2019-05-14T00:55:42.164Z,0.00
2019-05-14T00:56:42.120Z,0.00
2019-05-14T00:57:42.780Z,0.00
2019-05-14T00:58:41.957Z,0.00
2019-05-14T00:59:42.010Z,0.00
2019-05-14T01:00:41.969Z,0.00
2019-05-14T01:01:42.495Z,0.00
2019-05-14T01:02:41.881Z,0.00
2019-05-14T01:03:41.867Z,0.00
2019-05-14T01:04:42.891Z,0.00
2019-05-14T01:05:41.829Z,0.00
2019-05-14T01:06:42.193Z,0.00
2019-05-14T01:07:42.263Z,0.00
2019-05-14T01:08:41.791Z,0.00
2019-05-14T01:09:42.272Z,0.00
2019-05-14T01:10:41.919Z,0.00
2019-05-14T01:11:42.113Z,0.00
2019-05-14T01:12:41.850Z,0.00
2019-05-14T01:13:41.873Z,0.00
2019-05-14T01:14:42.467Z,0.00
2019-05-14T01:15:41.662Z,0.00
2019-05-14T01:16:42.458Z,0.00
2019-05-14T01:17:42.138Z,0.00
2019-05-14T01:18:41.632Z,0.00
2019-05-14T01:19:42.465Z,0.00
2019-05-14T01:20:41.574Z,0.00
2019-05-14T01:21:41.832Z,0.00
2019-05-14T01:22:42.307Z,0.00
2019-05-14T01:23:41.710Z,0.00
2019-05-14T01:24:41.875Z,0.00
2019-05-14T01:25:42.223Z,0.00
2019-05-14T01:26:41.683Z,0.00
2019-05-14T01:27:41.568Z,0.00
2019-05-14T01:28:41.697Z,0.00
2019-05-14T01:29:42.535Z,0.00
2019-05-14T01:30:41.409Z,0.00
2019-05-14T01:31:41.889Z,0.00
2019-05-14T01:32:42.044Z,0.00
2019-05-14T01:33:41.352Z,0.00
2019-05-14T01:34:42.042Z,0.00
2019-05-14T01:35:42.038Z,0.00
2019-05-14T01:36:41.533Z,0.00
2019-05-14T01:37:41.801Z,0.00
2019-05-14T01:38:41.854Z,0.00
2019-05-14T01:39:42.033Z,0.00
2019-05-14T01:40:41.967Z,0.00
2019-05-14T01:41:42.281Z,0.00
2019-05-14T01:42:41.754Z,0.00
2019-05-14T01:43:41.957Z,0.00
2019-05-14T01:44:41.441Z,0.00
2019-05-14T01:45:41.751Z,0.00
2019-05-14T01:46:42.084Z,0.00
2019-05-14T01:47:41.532Z,0.00
2019-05-14T01:48:41.772Z,0.00
2019-05-14T01:49:42.753Z,0.00
2019-05-14T01:50:41.457Z,0.00
2019-05-14T01:51:42.399Z,0.00
2019-05-14T01:52:41.522Z,0.00
2019-05-14T01:53:41.691Z,0.00
2019-05-14T01:54:42.667Z,0.00
2019-05-14T01:55:41.482Z,0.00
2019-05-14T01:56:42.415Z,0.00
2019-05-14T01:57:42.503Z,0.00
2019-05-14T01:58:41.730Z,0.00
2019-05-14T01:59:42.950Z,0.00
2019-05-14T02:00:41.674Z,0.00
2019-05-14T02:01:41.516Z,0.00
2019-05-14T02:02:41.759Z,0.00
2019-05-14T02:03:41.218Z,0.00
2019-05-14T02:04:42.651Z,0.00
2019-05-14T02:05:41.579Z,0.00
2019-05-14T02:06:41.308Z,0.00
2019-05-14T02:07:41.998Z,0.00
2019-05-14T02:08:41.394Z,0.00
2019-05-14T02:09:42.008Z,0.00
2019-05-14T02:10:41.978Z,0.00
2019-05-14T02:11:41.597Z,0.00
2019-05-14T02:12:42.425Z,0.00
2019-05-14T02:13:41.418Z,0.00
2019-05-14T02:14:42.450Z,0.00
2019-05-14T02:15:43.068Z,0.00
2019-05-14T02:16:42.234Z,0.00
2019-05-14T02:17:41.393Z,0.00
2019-05-14T02:18:41.603Z,0.00
2019-05-14T02:19:42.501Z,0.00
2019-05-14T02:20:41.488Z,0.00
2019-05-14T02:21:42.545Z,0.00
2019-05-14T02:22:41.670Z,0.00
2019-05-14T02:23:42.041Z,0.00
2019-05-14T02:24:41.761Z,0.00
2019-05-14T02:25:41.250Z,0.00
2019-05-14T02:26:42.482Z,0.00
2019-05-14T02:27:41.355Z,0.00
2019-05-14T02:28:42.079Z,0.00
2019-05-14T02:29:41.631Z,0.00
2019-05-14T02:30:51.763Z,0.00
2019-05-14T02:31:40.370Z,0.00
2019-05-14T02:32:40.823Z,0.00
2019-05-14T02:33:40.301Z,0.00
2019-05-14T02:34:40.692Z,0.00
2019-05-14T02:35:40.262Z,0.00
2019-05-14T02:36:40.337Z,0.00
2019-05-14T02:37:40.614Z,0.00
2019-05-14T02:38:40.237Z,0.00
2019-05-14T02:39:41.210Z,0.00
2019-05-14T02:40:40.610Z,0.00
2019-05-14T02:41:40.181Z,0.00
2019-05-14T02:42:40.594Z,0.00
2019-05-14T02:43:40.860Z,0.00
2019-05-14T02:44:40.966Z,0.00
2019-05-14T02:45:58.653Z,0.00
2019-05-14T02:46:40.759Z,0.00
2019-05-14T02:47:40.091Z,0.00
2019-05-14T02:48:40.463Z,0.00
2019-05-14T02:49:40.249Z,0.00
2019-05-14T02:50:40.001Z,0.00
2019-05-14T02:51:40.000Z,0.00
2019-05-14T02:52:40.542Z,0.00
2019-05-14T02:53:39.949Z,0.00
2019-05-14T02:54:40.598Z,0.00
2019-05-14T02:55:39.917Z,0.00
2019-05-14T02:56:40.447Z,0.00
2019-05-14T02:57:39.876Z,0.00
2019-05-14T02:58:40.304Z,0.00
2019-05-14T02:59:40.016Z,0.00
2019-05-14T03:00:40.739Z,0.00
2019-05-14T03:01:40.830Z,0.00
2019-05-14T03:02:40.373Z,4.00
2019-05-14T03:03:40.409Z,0.00
2019-05-14T03:04:40.011Z,0.00
2019-05-14T03:05:40.298Z,4.00
2019-05-14T03:06:39.864Z,0.00
2019-05-14T03:07:39.893Z,4.00
2019-05-14T03:08:39.683Z,4.00
2019-05-14T03:09:40.421Z,4.00
2019-05-14T03:10:40.395Z,4.00
2019-05-14T03:11:40.654Z,4.00
2019-05-14T03:12:39.997Z,4.00
2019-05-14T03:13:40.261Z,4.00
2019-05-14T03:14:40.165Z,8.00
2019-05-14T03:15:39.557Z,8.00
2019-05-14T03:16:40.619Z,8.00
2019-05-14T03:17:40.436Z,8.00
2019-05-14T03:18:39.859Z,12.00
2019-05-14T03:19:40.801Z,12.00
2019-05-14T03:20:39.487Z,12.00
2019-05-14T03:21:39.779Z,16.00
2019-05-14T03:22:53.690Z,12.00
2019-05-14T03:23:39.579Z,16.00
2019-05-14T03:24:39.917Z,16.00
2019-05-14T03:25:40.126Z,20.00
2019-05-14T03:26:39.961Z,24.00
2019-05-14T03:27:40.399Z,24.00
2019-05-14T03:28:40.015Z,28.00
2019-05-14T03:29:40.174Z,32.00
2019-05-14T03:30:42.428Z,32.00
2019-05-14T03:31:42.462Z,36.00
2019-05-14T03:32:42.653Z,40.00
2019-05-14T03:33:44.096Z,44.00
2019-05-14T03:34:43.079Z,44.00
2019-05-14T03:35:44.077Z,52.00
2019-05-14T03:36:42.972Z,52.00
2019-05-14T03:37:39.289Z,56.00
2019-05-14T03:38:39.846Z,64.00
2019-05-14T03:39:39.760Z,68.00
2019-05-14T03:40:39.952Z,76.00
2019-05-14T03:41:39.960Z,80.00
2019-05-14T03:42:39.915Z,84.00
2019-05-14T03:43:39.327Z,88.00
2019-05-14T03:44:39.918Z,92.00
2019-05-14T03:45:39.349Z,96.00
2019-05-14T03:46:49.470Z,104.00
2019-05-14T03:47:39.619Z,108.00
2019-05-14T03:48:40.091Z,116.00
2019-05-14T03:49:39.890Z,124.00
2019-05-14T03:50:39.086Z,124.00
2019-05-14T03:51:39.554Z,132.00
2019-05-14T03:52:39.923Z,140.00
2019-05-14T03:53:55.087Z,144.00
2019-05-14T03:54:40.672Z,148.00
2019-05-14T03:55:40.253Z,152.00
2019-05-14T03:56:39.545Z,160.00
2019-05-14T03:57:39.862Z,164.00
2019-05-14T03:58:39.368Z,176.00
2019-05-14T03:59:40.194Z,180.00
2019-05-14T04:00:39.141Z,184.00
2019-05-14T04:01:40.127Z,192.00
2019-05-14T04:02:39.210Z,204.00
2019-05-14T04:03:39.851Z,204.00
2019-05-14T04:04:39.475Z,216.00
2019-05-14T04:05:40.150Z,220.00
2019-05-14T04:06:40.265Z,224.00
2019-05-14T04:07:39.470Z,236.00
2019-05-14T04:08:39.328Z,244.00
2019-05-14T04:09:40.002Z,256.00
2019-05-14T04:10:41.784Z,264.00
2019-05-14T04:11:39.803Z,272.00
2019-05-14T04:12:40.350Z,280.00
2019-05-14T04:13:40.547Z,284.00
2019-05-14T04:14:39.850Z,304.00
2019-05-14T04:15:39.205Z,320.00
2019-05-14T04:16:39.816Z,336.00
2019-05-14T04:17:42.206Z,336.00
2019-05-14T04:18:40.454Z,328.00
2019-05-14T04:19:39.542Z,328.00
2019-05-14T04:20:39.241Z,336.00
2019-05-14T04:21:40.022Z,340.00
2019-05-14T04:22:39.301Z,356.00
2019-05-14T04:23:39.754Z,364.00
2019-05-14T04:24:41.361Z,368.00
2019-05-14T04:25:39.032Z,404.00
2019-05-14T04:26:56.417Z,444.00
2019-05-14T04:27:40.096Z,416.00
2019-05-14T04:28:39.243Z,408.00
2019-05-14T04:29:39.558Z,424.00
2019-05-14T04:30:39.966Z,472.00
2019-05-14T04:31:38.993Z,484.00
2019-05-14T04:32:39.425Z,456.00
2019-05-14T04:33:39.292Z,476.00
2019-05-14T04:34:39.706Z,508.00
2019-05-14T04:35:40.151Z,576.00
2019-05-14T04:36:39.203Z,640.00
2019-05-14T04:37:39.872Z,584.00
2019-05-14T04:38:40.825Z,572.00
2019-05-14T04:39:39.679Z,584.00
2019-05-14T04:40:39.982Z,612.00
2019-05-14T04:41:39.329Z,604.00
2019-05-14T04:42:40.221Z,572.00
2019-05-14T04:43:40.003Z,572.00
2019-05-14T04:44:40.454Z,572.00
2019-05-14T04:45:39.547Z,572.00
2019-05-14T04:46:39.510Z,592.00
2019-05-14T04:47:42.077Z,556.00
2019-05-14T04:48:42.959Z,556.00
2019-05-14T04:49:39.941Z,588.00
2019-05-14T04:50:40.493Z,644.00
2019-05-14T04:51:39.680Z,720.00
2019-05-14T04:52:40.253Z,700.00
2019-05-14T04:53:39.433Z,684.00
2019-05-14T04:54:39.379Z,708.00
2019-05-14T04:55:40.067Z,756.00
2019-05-14T04:56:39.991Z,744.00
2019-05-14T04:57:39.244Z,732.00
2019-05-14T04:58:40.981Z,688.00
2019-05-14T04:59:39.727Z,664.00
2019-05-14T05:00:39.213Z,620.00
2019-05-14T05:01:40.087Z,620.00
2019-05-14T05:02:39.720Z,632.00
2019-05-14T05:03:40.033Z,628.00
2019-05-14T05:04:41.184Z,616.00
2019-05-14T05:05:39.424Z,632.00
2019-05-14T05:06:39.607Z,620.00
2019-05-14T05:07:40.305Z,640.00
2019-05-14T05:08:39.480Z,648.00
2019-05-14T05:09:39.863Z,660.00
2019-05-14T05:10:39.827Z,672.00
2019-05-14T05:11:39.464Z,680.00
2019-05-14T05:12:38.738Z,688.00
2019-05-14T05:13:39.735Z,684.00
2019-05-14T05:14:38.841Z,676.00
2019-05-14T05:15:39.556Z,672.00
2019-05-14T05:16:39.105Z,668.00
2019-05-14T05:17:44.307Z,668.00
2019-05-14T05:18:39.749Z,672.00
2019-05-14T05:19:39.389Z,664.00
2019-05-14T05:20:39.343Z,652.00
2019-05-14T05:21:38.787Z,672.00
2019-05-14T05:22:39.399Z,660.00
2019-05-14T05:23:38.749Z,652.00
2019-05-14T05:24:38.140Z,664.00
2019-05-14T05:25:38.427Z,708.00
2019-05-14T05:26:39.204Z,728.00
2019-05-14T05:27:38.201Z,732.00
2019-05-14T05:28:39.206Z,740.00
2019-05-14T05:29:39.281Z,732.00
2019-05-14T05:30:38.501Z,740.00
2019-05-14T05:31:38.129Z,748.00
2019-05-14T05:32:38.855Z,756.00
2019-05-14T05:33:38.397Z,764.00
2019-05-14T05:34:38.940Z,768.00
2019-05-14T05:35:39.247Z,776.00
2019-05-14T05:36:38.063Z,772.00
2019-05-14T05:37:38.465Z,764.00
2019-05-14T05:38:39.426Z,784.00
2019-05-14T05:39:38.651Z,780.00
2019-05-14T05:40:39.126Z,784.00
2019-05-14T05:41:38.486Z,800.00
2019-05-14T05:42:38.567Z,820.00
2019-05-14T05:43:39.080Z,868.00
2019-05-14T05:44:39.156Z,868.00
2019-05-14T05:45:38.091Z,896.00
2019-05-14T05:46:38.894Z,912.00
2019-05-14T05:47:38.996Z,932.00
2019-05-14T05:48:38.929Z,936.00
2019-05-14T05:49:38.190Z,888.00
2019-05-14T05:50:38.907Z,928.00
2019-05-14T05:51:39.061Z,952.00
2019-05-14T05:52:38.747Z,940.00
2019-05-14T05:53:39.044Z,948.00
2019-05-14T05:54:38.503Z,948.00
2019-05-14T05:55:39.263Z,1008.00
2019-05-14T05:56:38.752Z,1036.00
2019-05-14T05:57:38.994Z,1028.00
2019-05-14T05:58:39.463Z,1040.00
2019-05-14T05:59:39.048Z,1088.00
2019-05-14T06:00:39.433Z,1120.00
2019-05-14T06:01:45.042Z,1108.00
2019-05-14T06:02:36.629Z,1100.00
2019-05-14T06:03:39.047Z,1044.00
2019-05-14T06:04:38.962Z,1044.00
2019-05-14T06:05:38.935Z,1092.00
2019-05-14T06:06:38.898Z,1064.00
2019-05-14T06:07:36.568Z,1048.00
2019-05-14T06:08:38.661Z,1000.00
2019-05-14T06:09:38.099Z,976.00
2019-05-14T06:10:36.486Z,940.00
2019-05-14T06:11:38.077Z,892.00
2019-05-14T06:12:38.829Z,896.00
2019-05-14T06:13:38.810Z,820.00
2019-05-14T06:14:38.227Z,824.00
2019-05-14T06:15:47.586Z,872.00
2019-05-14T06:16:38.489Z,944.00
2019-05-14T06:17:38.851Z,908.00
2019-05-14T06:18:38.794Z,876.00
2019-05-14T06:19:38.230Z,844.00
2019-05-14T06:20:38.524Z,840.00
2019-05-14T06:21:36.303Z,832.00
2019-05-14T06:22:38.413Z,780.00
2019-05-14T06:23:38.367Z,776.00
2019-05-14T06:24:38.759Z,800.00
2019-05-14T06:25:36.231Z,872.00
2019-05-14T06:26:38.281Z,908.00
2019-05-14T06:27:38.062Z,1008.00
2019-05-14T06:28:40.314Z,1060.00
2019-05-14T06:29:38.319Z,980.00
2019-05-14T06:30:36.156Z,992.00
2019-05-14T06:31:38.438Z,1024.00
2019-05-14T06:32:38.623Z,940.00
2019-05-14T06:33:36.102Z,892.00
2019-05-14T06:34:38.243Z,976.00
2019-05-14T06:35:36.099Z,1140.00
2019-05-14T06:36:36.045Z,1144.00
2019-05-14T06:37:38.280Z,1144.00
2019-05-14T06:38:38.598Z,1152.00
2019-05-14T06:39:36.009Z,1176.00
2019-05-14T06:40:35.973Z,1184.00
2019-05-14T06:41:40.140Z,1156.00
2019-05-14T06:42:35.942Z,1124.00
2019-05-14T06:43:35.930Z,1100.00
2019-05-14T06:44:38.405Z,1120.00
2019-05-14T06:45:38.218Z,1108.00
2019-05-14T06:46:35.874Z,1104.00
2019-05-14T06:47:38.063Z,1120.00
2019-05-14T06:48:35.836Z,1144.00
2019-05-14T06:49:38.333Z,1068.00
2019-05-14T06:50:35.799Z,1160.00
2019-05-14T06:51:35.792Z,1228.00
2019-05-14T06:52:35.780Z,1308.00
2019-05-14T06:53:35.753Z,1336.00
2019-05-14T06:54:35.731Z,1356.00
2019-05-14T06:55:35.745Z,1356.00
2019-05-14T06:56:35.701Z,1340.00
2019-05-14T06:57:35.685Z,1328.00
2019-05-14T06:58:35.664Z,1284.00
2019-05-14T06:59:37.921Z,1228.00
2019-05-14T07:00:35.644Z,1276.00
2019-05-14T07:01:35.648Z,1300.00
2019-05-14T07:02:35.597Z,1316.00
2019-05-14T07:03:36.130Z,1272.00
2019-05-14T07:04:35.582Z,1276.00
2019-05-14T07:05:35.552Z,1312.00
2019-05-14T07:06:35.554Z,1324.00
2019-05-14T07:07:39.945Z,1368.00
2019-05-14T07:08:35.499Z,1412.00
2019-05-14T07:09:35.485Z,1428.00
2019-05-14T07:10:35.503Z,1412.00
2019-05-14T07:11:39.235Z,1312.00
2019-05-14T07:12:35.437Z,1256.00
2019-05-14T07:13:39.148Z,1236.00
2019-05-14T07:14:35.406Z,1204.00
2019-05-14T07:15:35.382Z,1192.00
2019-05-14T07:16:35.375Z,1212.00
2019-05-14T07:17:39.235Z,1248.00
2019-05-14T07:18:48.610Z,1400.00
2019-05-14T07:19:35.330Z,1376.00
2019-05-14T07:20:35.305Z,1392.00
2019-05-14T07:21:35.297Z,1424.00
2019-05-14T07:22:35.270Z,1344.00
2019-05-14T07:23:35.426Z,1312.00
2019-05-14T07:24:37.187Z,1268.00
2019-05-14T07:25:35.224Z,1260.00
2019-05-14T07:26:35.240Z,1280.00
2019-05-14T07:27:35.187Z,1280.00
2019-05-14T07:28:35.181Z,1276.00
2019-05-14T07:29:35.155Z,1292.00
2019-05-14T07:30:35.147Z,1320.00
2019-05-14T07:31:35.122Z,1324.00
2019-05-14T07:32:35.110Z,1388.00
2019-05-14T07:33:35.142Z,1424.00
2019-05-14T07:34:35.079Z,1456.00
2019-05-14T07:35:35.062Z,1404.00
2019-05-14T07:36:35.043Z,1420.00
2019-05-14T07:37:35.030Z,1416.00
2019-05-14T07:38:35.015Z,1436.00
2019-05-14T07:39:34.993Z,1464.00
2019-05-14T07:40:34.986Z,1452.00
2019-05-14T07:41:34.981Z,1432.00
2019-05-14T07:42:34.948Z,1448.00
2019-05-14T07:43:34.953Z,1424.00
2019-05-14T07:44:34.915Z,1452.00
2019-05-14T07:45:34.895Z,1496.00
2019-05-14T07:46:34.909Z,1456.00
2019-05-14T07:47:34.871Z,1456.00
2019-05-14T07:48:34.847Z,1476.00
2019-05-14T07:49:34.838Z,1560.00
2019-05-14T07:50:34.820Z,1560.00
2019-05-14T07:51:34.814Z,1580.00
2019-05-14T07:52:34.811Z,1584.00
2019-05-14T07:53:38.949Z,1564.00
2019-05-14T07:54:34.779Z,1552.00
2019-05-14T07:55:34.737Z,1560.00
2019-05-14T07:56:34.931Z,1576.00
2019-05-14T07:57:34.837Z,1628.00
2019-05-14T07:58:34.693Z,1636.00
2019-05-14T07:59:34.673Z,1592.00
2019-05-14T08:00:34.663Z,1600.00
2019-05-14T08:01:34.647Z,1624.00
2019-05-14T08:02:34.638Z,1648.00
2019-05-14T08:03:34.636Z,1652.00
2019-05-14T08:04:34.599Z,1668.00
2019-05-14T08:05:34.597Z,1644.00
2019-05-14T08:06:34.601Z,1668.00
2019-05-14T08:07:34.549Z,1724.00
2019-05-14T08:08:34.538Z,1788.00
2019-05-14T08:09:34.526Z,1760.00
2019-05-14T08:10:34.503Z,1688.00
2019-05-14T08:11:34.484Z,1768.00
2019-05-14T08:12:34.470Z,1780.00
2019-05-14T08:13:34.488Z,1800.00
2019-05-14T08:14:45.383Z,1776.00
2019-05-14T08:15:34.422Z,1800.00
2019-05-14T08:16:34.409Z,1808.00
2019-05-14T08:17:34.403Z,1820.00
2019-05-14T08:18:34.444Z,1860.00
2019-05-14T08:19:34.648Z,1836.00
2019-05-14T08:20:34.357Z,1856.00
2019-05-14T08:21:34.336Z,1880.00
2019-05-14T08:22:34.318Z,1936.00
2019-05-14T08:23:34.297Z,1868.00
2019-05-14T08:24:34.291Z,1864.00
2019-05-14T08:25:34.266Z,1908.00
2019-05-14T08:26:34.312Z,1976.00
2019-05-14T08:27:34.304Z,1992.00
2019-05-14T08:28:34.234Z,1932.00
2019-05-14T08:29:36.836Z,1912.00
2019-05-14T08:30:34.197Z,2004.00
2019-05-14T08:31:34.189Z,2000.00
2019-05-14T08:32:34.167Z,1996.00
2019-05-14T08:33:34.142Z,2020.00
2019-05-14T08:34:34.125Z,1984.00
2019-05-14T08:35:35.259Z,2108.00
2019-05-14T08:36:34.101Z,2244.00
2019-05-14T08:37:34.117Z,2336.00
2019-05-14T08:38:34.082Z,2588.00
2019-05-14T08:39:34.057Z,3184.00
2019-05-14T08:40:34.051Z,7608.00
2019-05-14T08:41:34.030Z,13152.00
2019-05-14T08:42:34.578Z,18176.00
2019-05-14T08:43:34.002Z,4620.00
2019-05-14T08:44:33.982Z,4840.00
2019-05-14T08:45:33.972Z,3504.00
2019-05-14T08:46:33.956Z,2780.00
2019-05-14T08:47:33.964Z,12572.00
2019-05-14T08:48:33.918Z,4512.00
2019-05-14T08:49:41.901Z,10224.00
2019-05-14T08:50:33.892Z,4932.00
2019-05-14T08:51:33.876Z,2408.00
2019-05-14T08:52:33.888Z,1832.00
2019-05-14T08:53:33.854Z,2052.00
2019-05-14T08:54:34.114Z,2852.00
2019-05-14T08:55:33.829Z,3316.00
2019-05-14T08:56:33.806Z,3156.00
2019-05-14T08:57:33.897Z,2452.00
2019-05-14T08:58:33.782Z,4360.00
2019-05-14T08:59:33.759Z,2680.00
2019-05-14T09:00:33.745Z,4284.00
2019-05-14T09:01:33.737Z,2972.00
2019-05-14T09:02:33.772Z,2324.00
2019-05-14T09:03:33.701Z,2392.00
2019-05-14T09:04:33.708Z,3708.00
2019-05-14T09:05:33.680Z,70528.00
2019-05-14T09:06:33.664Z,3364.00
2019-05-14T09:07:33.642Z,2856.00
2019-05-14T09:08:33.659Z,2324.00
2019-05-14T09:09:33.627Z,1992.00
2019-05-14T09:10:33.641Z,2604.00
2019-05-14T09:11:36.389Z,37664.00
2019-05-14T09:12:33.605Z,3568.00
2019-05-14T09:13:33.561Z,2540.00
2019-05-14T09:14:33.543Z,3736.00
2019-05-14T09:15:33.530Z,18656.00
2019-05-14T09:16:45.532Z,18560.00
2019-05-14T09:17:33.529Z,12392.00
2019-05-14T09:18:33.484Z,10224.00
2019-05-14T09:19:33.501Z,6500.00
2019-05-14T09:20:33.454Z,4768.00
2019-05-14T09:21:33.447Z,5812.00
2019-05-14T09:22:33.431Z,9064.00
2019-05-14T09:23:33.439Z,8368.00
2019-05-14T09:24:33.417Z,7672.00
2019-05-14T09:25:33.409Z,7376.00
2019-05-14T09:26:33.380Z,5104.00
2019-05-14T09:27:33.364Z,4692.00
2019-05-14T09:28:33.366Z,10460.00
2019-05-14T09:29:33.363Z,5468.00
2019-05-14T09:30:33.334Z,5788.00
2019-05-14T09:31:33.344Z,7036.00
2019-05-14T09:32:33.309Z,8272.00
2019-05-14T09:33:33.294Z,3656.00
2019-05-14T09:34:33.411Z,2832.00
2019-05-14T09:35:33.270Z,3024.00
2019-05-14T09:36:33.264Z,3188.00
2019-05-14T09:37:33.250Z,30496.00
2019-05-14T09:38:33.234Z,65344.00
2019-05-14T09:39:33.224Z,21664.00
2019-05-14T09:40:33.372Z,7752.00
2019-05-14T09:41:33.200Z,21600.00
2019-05-14T09:42:33.222Z,42976.00
2019-05-14T09:43:33.178Z,4040.00
2019-05-14T09:44:33.166Z,3864.00
2019-05-14T09:45:33.169Z,4076.00
2019-05-14T09:46:33.153Z,39904.00
2019-05-14T09:47:33.157Z,31296.00
2019-05-14T09:48:33.122Z,68800.00
2019-05-14T09:49:33.113Z,72128.00
2019-05-14T09:50:33.096Z,70144.00
2019-05-14T09:51:33.096Z,70304.00
2019-05-14T09:52:33.137Z,76544.00
2019-05-14T09:53:33.065Z,82272.00
2019-05-14T09:54:33.080Z,83200.00
2019-05-14T09:55:33.055Z,86752.00
2019-05-14T09:56:33.038Z,87552.00
2019-05-14T09:57:33.038Z,8904.00
2019-05-14T09:58:33.062Z,27136.00
2019-05-14T09:59:33.045Z,84224.00
2019-05-14T10:00:33.014Z,5176.00
2019-05-14T10:01:33.000Z,6308.00
2019-05-14T10:02:33.006Z,77376.00
2019-05-14T10:03:32.985Z,62304.00
2019-05-14T10:04:33.039Z,99424.00
2019-05-14T10:05:32.979Z,68832.00
2019-05-14T10:06:32.964Z,41632.00
2019-05-14T10:07:32.956Z,82048.00
2019-05-14T10:08:32.950Z,55200.00
2019-05-14T10:09:32.944Z,81408.00
2019-05-14T10:10:32.976Z,9136.00
2019-05-14T10:11:32.935Z,4740.00
2019-05-14T10:12:32.933Z,7404.00
2019-05-14T10:13:32.997Z,112000.00
2019-05-14T10:14:32.908Z,108384.00
2019-05-14T10:15:32.945Z,98752.00
2019-05-14T10:16:32.906Z,89280.00
2019-05-14T10:17:32.894Z,91968.00
2019-05-14T10:18:32.888Z,96704.00
2019-05-14T10:19:32.936Z,91584.00
2019-05-14T10:20:40.927Z,85248.00
2019-05-14T10:21:32.882Z,83104.00
2019-05-14T10:22:32.860Z,89600.00
2019-05-14T10:23:32.863Z,84416.00
2019-05-14T10:24:32.854Z,76512.00
2019-05-14T10:25:32.854Z,12492.00
2019-05-14T10:26:32.863Z,88704.00
2019-05-14T10:27:32.867Z,56000.00
2019-05-14T10:28:32.840Z,86304.00
2019-05-14T10:29:32.834Z,25056.00
2019-05-14T10:30:32.827Z,91744.00
2019-05-14T10:31:32.834Z,19424.00
2019-05-14T10:32:32.836Z,90976.00
2019-05-14T10:33:32.817Z,81056.00
2019-05-14T10:34:32.818Z,45344.00
2019-05-14T10:35:32.809Z,100832.00
2019-05-14T10:36:32.852Z,43680.00
2019-05-14T10:37:32.807Z,9332.00
2019-05-14T10:38:32.797Z,34592.00
2019-05-14T10:39:32.865Z,55936.00
2019-05-14T10:40:32.784Z,17920.00
2019-05-14T10:41:32.781Z,75296.00
2019-05-14T10:42:32.800Z,5924.00
2019-05-14T10:43:32.770Z,27072.00
2019-05-14T10:44:32.768Z,20064.00
2019-05-14T10:45:32.764Z,44128.00
2019-05-14T10:46:32.758Z,55040.00
2019-05-14T10:47:32.906Z,67616.00
2019-05-14T10:48:32.746Z,64160.00
2019-05-14T10:49:32.749Z,19232.00
2019-05-14T10:50:32.753Z,23840.00
2019-05-14T10:51:32.727Z,14624.00
2019-05-14T10:52:32.722Z,27040.00
2019-05-14T10:53:32.754Z,6396.00
2019-05-14T10:54:32.731Z,16032.00
2019-05-14T10:55:32.705Z,7076.00
2019-05-14T10:56:32.697Z,7404.00
2019-05-14T10:57:32.720Z,10968.00
2019-05-14T10:58:32.717Z,9140.00
2019-05-14T10:59:32.686Z,3736.00
2019-05-14T11:00:32.673Z,2492.00
2019-05-14T11:01:32.660Z,12484.00
2019-05-14T11:02:32.662Z,32768.00
2019-05-14T11:03:32.789Z,27616.00
2019-05-14T11:04:34.401Z,7392.00
2019-05-14T11:05:32.631Z,7860.00
2019-05-14T11:06:32.628Z,35968.00
2019-05-14T11:07:32.616Z,11980.00
2019-05-14T11:08:32.619Z,9236.00
2019-05-14T11:09:32.610Z,9976.00
2019-05-14T11:10:32.600Z,7336.00
2019-05-14T11:11:32.589Z,5380.00
2019-05-14T11:12:32.571Z,2780.00
2019-05-14T11:13:32.567Z,2676.00
2019-05-14T11:14:32.580Z,3264.00
2019-05-14T11:15:32.553Z,4028.00
2019-05-14T11:16:32.545Z,7036.00
2019-05-14T11:17:32.523Z,3800.00
2019-05-14T11:18:32.519Z,3788.00
2019-05-14T11:19:32.537Z,4932.00
2019-05-14T11:20:32.498Z,69952.00
2019-05-14T11:21:32.496Z,66528.00
2019-05-14T11:22:32.484Z,19776.00
2019-05-14T11:23:32.468Z,3088.00
2019-05-14T11:24:32.512Z,2732.00
2019-05-14T11:25:32.456Z,93600.00
2019-05-14T11:26:32.446Z,61600.00
2019-05-14T11:27:32.427Z,98848.00
2019-05-14T11:28:32.429Z,11864.00
2019-05-14T11:29:32.415Z,103328.00
2019-05-14T11:30:32.432Z,6052.00
2019-05-14T11:31:34.293Z,5172.00
2019-05-14T11:32:32.392Z,22208.00
2019-05-14T11:33:32.375Z,4388.00
2019-05-14T11:34:32.371Z,8588.00
2019-05-14T11:35:32.415Z,5768.00
2019-05-14T11:36:32.351Z,3228.00
2019-05-14T11:37:32.343Z,3208.00
2019-05-14T11:38:37.242Z,3684.00
2019-05-14T11:39:32.329Z,3940.00
2019-05-14T11:40:32.315Z,6648.00
2019-05-14T11:41:32.449Z,96288.00
2019-05-14T11:42:32.329Z,3668.00
2019-05-14T11:43:32.343Z,18720.00
2019-05-14T11:44:32.383Z,3104.00
2019-05-14T11:45:32.354Z,3624.00
2019-05-14T11:46:43.797Z,3708.00
2019-05-14T11:47:32.245Z,4204.00
2019-05-14T11:48:32.237Z,5360.00
2019-05-14T11:49:32.245Z,47328.00
2019-05-14T11:50:32.915Z,95616.00
2019-05-14T11:51:58.841Z,10968.00
2019-05-14T11:52:32.210Z,100224.00
2019-05-14T11:53:32.195Z,106624.00
2019-05-14T11:54:32.192Z,107456.00
2019-05-14T11:55:32.410Z,64096.00
2019-05-14T11:56:32.173Z,89952.00
2019-05-14T11:57:32.162Z,95936.00
2019-05-14T11:58:32.180Z,98688.00
2019-05-14T11:59:32.153Z,103040.00
2019-05-14T12:00:32.164Z,108128.00
2019-05-14T12:01:32.148Z,100768.00
2019-05-14T12:02:32.140Z,56192.00
2019-05-14T12:03:32.138Z,96000.00
2019-05-14T12:04:32.130Z,17088.00
2019-05-14T12:05:32.116Z,17856.00
2019-05-14T12:06:32.120Z,35456.00
2019-05-14T12:07:32.112Z,7552.00
2019-05-14T12:08:32.110Z,14048.00
2019-05-14T12:09:32.108Z,4028.00
2019-05-14T12:10:32.102Z,3504.00
2019-05-14T12:11:32.100Z,3408.00
2019-05-14T12:12:32.102Z,3532.00
2019-05-14T12:13:32.982Z,3784.00
2019-05-14T12:14:32.074Z,27296.00
2019-05-14T12:15:32.079Z,3744.00
2019-05-14T12:16:32.102Z,4424.00
2019-05-14T12:17:32.069Z,31584.00
2019-05-14T12:18:32.082Z,64512.00
2019-05-14T12:19:32.060Z,47520.00
2019-05-14T12:20:32.046Z,3084.00
2019-05-14T12:21:32.045Z,3220.00
2019-05-14T12:22:32.044Z,3524.00
2019-05-14T12:23:32.056Z,3812.00
2019-05-14T12:24:32.023Z,3012.00
2019-05-14T12:25:32.020Z,2748.00
2019-05-14T12:26:32.068Z,2744.00